createdAt,value
2023-01-22T00:00:24.252Z,1.71
2023-01-22T00:04:42.411Z,1.70
2023-01-22T00:08:54.386Z,1.70
2023-01-22T00:13:06.803Z,1.71
2023-01-22T00:17:13.223Z,1.70
2023-01-22T00:21:31.562Z,1.70
2023-01-22T00:25:37.509Z,1.70
2023-01-22T00:29:50.020Z,1.69
2023-01-22T00:34:00.954Z,1.68
2023-01-22T00:38:32.441Z,1.67
2023-01-22T00:42:44.333Z,1.67
2023-01-22T00:47:10.634Z,1.67
2023-01-22T00:51:22.729Z,1.68
2023-01-22T00:55:34.949Z,1.66
2023-01-22T00:59:47.260Z,1.65
2023-01-22T01:03:59.357Z,1.63
2023-01-22T01:08:01.994Z,1.64
2023-01-22T01:12:06.882Z,1.61
2023-01-22T01:16:18.953Z,1.60
2023-01-22T01:20:25.620Z,1.60
2023-01-22T01:24:36.289Z,1.59
2023-01-22T01:28:48.494Z,1.60
2023-01-22T01:33:00.059Z,1.61
2023-01-22T01:37:12.433Z,1.60
2023-01-22T01:41:38.198Z,1.61
2023-01-22T01:45:43.589Z,1.62
2023-01-22T01:49:55.365Z,1.61
2023-01-22T01:54:01.500Z,1.61
2023-01-22T01:58:13.494Z,1.60
2023-01-22T02:02:25.787Z,1.60
2023-01-22T02:06:37.665Z,1.57
2023-01-22T02:10:40.615Z,1.55
2023-01-22T02:14:52.442Z,1.53
2023-01-22T02:18:58.392Z,1.53
2023-01-22T02:23:10.373Z,1.52
2023-01-22T02:27:22.624Z,1.52
2023-01-22T02:31:34.798Z,1.51
2023-01-22T02:35:47.628Z,1.51
2023-01-22T02:39:59.637Z,1.50
2023-01-22T02:44:04.607Z,1.49
2023-01-22T02:48:17.013Z,1.49
2023-01-22T02:52:21.211Z,1.44
2023-01-22T02:56:33.375Z,1.41
2023-01-22T03:00:45.789Z,1.38
2023-01-22T03:04:57.576Z,1.39
2023-01-22T03:09:09.917Z,1.38
2023-01-22T03:13:20.642Z,1.34
2023-01-22T03:17:31.402Z,1.30
2023-01-22T03:21:37.951Z,1.29
2023-01-22T03:26:04.255Z,1.26
2023-01-22T03:30:16.772Z,1.24
2023-01-22T03:34:29.112Z,1.22
2023-01-22T03:38:41.372Z,1.20
2023-01-22T03:42:53.504Z,1.19
2023-01-22T03:47:05.478Z,1.16
2023-01-22T03:51:17.493Z,1.11
2023-01-22T03:55:29.464Z,1.08
2023-01-22T03:59:36.174Z,1.09
2023-01-22T04:03:48.096Z,1.08
2023-01-22T04:08:02.090Z,1.08
2023-01-22T04:12:14.232Z,1.08
2023-01-22T04:16:26.402Z,1.07
2023-01-22T04:21:10.662Z,1.06
2023-01-22T04:25:22.473Z,1.03
2023-01-22T04:29:34.679Z,1.02
2023-01-22T04:33:47.039Z,1.01
2023-01-22T04:37:59.012Z,0.99
2023-01-22T04:42:03.992Z,0.96
2023-01-22T04:46:16.356Z,0.94
2023-01-22T04:50:23.238Z,0.92
2023-01-22T04:54:34.909Z,0.90
2023-01-22T04:58:40.432Z,0.88
2023-01-22T05:02:52.672Z,0.87
2023-01-22T05:07:05.017Z,0.84
2023-01-22T05:11:16.815Z,0.83
2023-01-22T05:15:25.233Z,0.84
2023-01-22T05:19:37.706Z,0.84
2023-01-22T05:23:50.095Z,0.83
2023-01-22T05:28:16.261Z,0.84
2023-01-22T05:32:41.011Z,0.86
2023-01-22T05:36:48.014Z,0.86
2023-01-22T05:41:00.672Z,0.87
2023-01-22T05:45:12.746Z,0.89
2023-01-22T05:49:25.073Z,0.90
2023-01-22T05:53:37.754Z,0.89
2023-01-22T05:57:50.318Z,0.89
2023-01-22T06:02:02.380Z,0.88
2023-01-22T06:06:14.876Z,0.89
2023-01-22T06:10:26.792Z,0.90
2023-01-22T06:14:39.797Z,0.89
2023-01-22T06:18:51.416Z,0.90
2023-01-22T06:23:03.993Z,0.89
2023-01-22T06:27:09.933Z,0.89
2023-01-22T06:31:16.355Z,0.90
2023-01-22T06:35:29.190Z,0.91
2023-01-22T06:39:41.795Z,0.90
2023-01-22T06:43:55.882Z,0.90
2023-01-22T06:48:08.468Z,0.91
2023-01-22T06:52:20.386Z,0.92
2023-01-22T06:56:27.235Z,0.92
2023-01-22T07:00:33.483Z,0.92
2023-01-22T07:04:45.649Z,0.91
2023-01-22T07:08:57.665Z,0.94
2023-01-22T07:13:04.493Z,0.94
2023-01-22T07:17:30.868Z,0.93
2023-01-22T07:21:43.022Z,0.93
2023-01-22T07:26:09.737Z,0.91
2023-01-22T07:30:21.188Z,0.88
2023-01-22T07:34:33.390Z,0.83
2023-01-22T07:38:45.334Z,0.82
2023-01-22T07:42:57.149Z,0.84
2023-01-22T07:46:54.550Z,0.81
2023-01-22T07:50:54.296Z,0.76
2023-01-22T07:55:02.448Z,0.72
2023-01-22T07:59:14.097Z,0.69
2023-01-22T08:03:10.731Z,0.60
2023-01-22T08:13:04.205Z,0.52
2023-01-22T08:16:27.665Z,0.45
2023-01-22T08:25:10.494Z,0.47
2023-01-22T08:29:38.921Z,0.50
2023-01-22T08:33:51.141Z,0.53
2023-01-22T08:37:57.968Z,0.55
2023-01-22T08:42:04.842Z,0.58
2023-01-22T08:45:30.991Z,0.61
2023-01-22T08:49:54.560Z,0.66
2023-01-22T08:53:46.504Z,0.68
2023-01-22T10:22:47.654Z,0.72
2023-01-22T10:26:59.976Z,0.75
2023-01-22T10:31:29.188Z,0.75
2023-01-22T10:35:45.533Z,0.75
2023-01-22T10:39:57.439Z,0.74
2023-01-22T10:44:13.217Z,0.73
2023-01-22T10:48:37.543Z,0.76
2023-01-22T10:53:08.976Z,0.74
2023-01-22T10:57:20.345Z,0.73
2023-01-22T11:01:46.183Z,0.74
2023-01-22T11:06:04.987Z,0.75
2023-01-22T11:10:42.105Z,0.77
2023-01-22T11:14:59.988Z,0.76
2023-01-22T11:19:37.258Z,0.77
2023-01-22T11:24:01.566Z,0.79
2023-01-22T11:28:19.987Z,0.80
2023-01-22T11:32:30.884Z,0.83
2023-01-22T11:36:34.791Z,0.86
2023-01-22T11:40:59.378Z,0.89
2023-01-22T11:45:23.841Z,1.08
2023-01-22T11:49:36.795Z,1.05
2023-01-22T11:53:47.857Z,1.04
2023-01-22T11:57:58.390Z,1.02
2023-01-22T12:02:09.162Z,1.02
2023-01-22T12:06:20.817Z,1.01
2023-01-22T12:10:35.965Z,1.03
2023-01-22T12:14:48.393Z,1.01
2023-01-22T12:19:06.524Z,1.01
2023-01-22T12:23:34.832Z,1.01
2023-01-22T12:27:46.959Z,1.01
2023-01-22T12:32:02.111Z,1.02
2023-01-22T12:36:33.597Z,1.03
2023-01-22T12:40:45.083Z,1.04
2023-01-22T12:44:50.828Z,1.06
2023-01-22T12:49:25.096Z,1.07
2023-01-22T12:53:39.183Z,1.10
2023-01-22T12:57:57.718Z,1.13
2023-01-22T13:02:05.941Z,1.16
2023-01-22T13:06:20.044Z,1.19
2023-01-22T13:10:33.136Z,1.18
2023-01-22T13:14:43.828Z,1.18
2023-01-22T13:19:02.576Z,1.18
2023-01-22T13:23:14.760Z,1.20
2023-01-22T13:27:19.296Z,1.20
2023-01-22T13:31:37.423Z,1.19
2023-01-22T13:35:49.547Z,1.18
2023-01-22T13:44:53.919Z,1.23
2023-01-22T13:49:06.463Z,1.25
2023-01-22T13:53:18.876Z,1.27
2023-01-22T13:57:30.969Z,1.30
2023-01-22T14:01:43.113Z,1.29
2023-01-22T14:06:02.087Z,1.29
2023-01-22T14:10:14.040Z,1.32
2023-01-22T14:14:26.070Z,1.35
2023-01-22T14:18:50.338Z,1.36
2023-01-22T14:23:03.228Z,1.35
2023-01-22T14:27:15.323Z,1.36
2023-01-22T14:31:27.536Z,1.37
2023-01-22T14:35:59.129Z,1.38
2023-01-22T14:40:13.865Z,1.40
2023-01-22T14:44:26.411Z,1.42
2023-01-22T14:48:32.841Z,1.45
2023-01-22T14:52:45.416Z,1.44
2023-01-22T14:56:57.876Z,1.44
2023-01-22T15:01:29.423Z,1.43
2023-01-22T15:05:35.502Z,1.43
2023-01-22T15:09:48.325Z,1.40
2023-01-22T15:14:01.138Z,1.38
2023-01-22T15:18:13.252Z,1.37
2023-01-22T15:22:26.179Z,1.31
2023-01-22T15:31:34.296Z,1.28
2023-01-22T15:35:43.289Z,1.28
2023-01-22T15:40:13.234Z,1.24
2023-01-22T15:44:27.980Z,1.18
2023-01-22T15:48:40.163Z,1.16
2023-01-22T15:52:52.603Z,1.13
2023-01-22T15:57:05.136Z,1.15
2023-01-22T16:01:18.176Z,1.17
2023-01-22T16:05:33.198Z,1.22
2023-01-22T16:09:45.363Z,1.26
2023-01-22T16:13:57.353Z,1.26
2023-01-22T16:18:09.835Z,1.27
2023-01-22T16:22:54.783Z,1.26
2023-01-22T16:27:06.573Z,1.26
2023-01-22T16:31:18.654Z,1.28
2023-01-22T16:35:30.002Z,1.26
2023-01-22T16:39:41.875Z,1.23
2023-01-22T16:44:12.917Z,1.21
2023-01-22T16:48:24.486Z,1.19
2023-01-22T16:52:43.431Z,1.17
2023-01-22T16:56:55.599Z,1.16
2023-01-22T17:01:07.853Z,1.14
2023-01-22T17:05:20.352Z,1.14
2023-01-22T17:09:23.548Z,1.13
2023-01-22T17:13:31.028Z,1.14
2023-01-22T17:17:43.396Z,1.17
2023-01-22T17:21:50.681Z,1.17
2023-01-22T17:26:02.563Z,1.15
2023-01-22T17:30:15.241Z,1.13
2023-01-22T17:34:14.870Z,1.07
2023-01-22T17:38:27.043Z,1.02
2023-01-22T17:42:39.484Z,1.00
2023-01-22T17:46:51.889Z,1.02
2023-01-22T17:51:04.097Z,1.01
2023-01-22T17:55:16.399Z,1.02
2023-01-22T17:59:28.745Z,1.01
2023-01-22T18:03:44.911Z,1.04
2023-01-22T18:08:18.623Z,1.04
2023-01-22T18:12:30.264Z,1.04
2023-01-22T18:16:42.375Z,1.04
2023-01-22T18:20:54.459Z,1.00
2023-01-22T18:25:07.315Z,0.97
2023-01-22T18:29:18.273Z,0.97
2023-01-22T18:33:43.111Z,0.98
2023-01-22T18:37:55.757Z,0.95
2023-01-22T18:42:02.882Z,0.97
2023-01-22T18:46:15.241Z,0.97
2023-01-22T18:50:27.735Z,0.96
2023-01-22T18:54:40.179Z,0.96
2023-01-22T18:58:52.027Z,0.96
2023-01-22T19:02:58.845Z,0.92
2023-01-22T19:06:51.594Z,0.88
2023-01-22T19:11:03.948Z,0.86
2023-01-22T19:15:16.735Z,0.82
2023-01-22T19:19:29.953Z,0.82
2023-01-22T19:23:57.237Z,0.82
2023-01-22T19:28:10.349Z,0.81
2023-01-22T19:32:15.232Z,0.81
2023-01-22T19:36:41.250Z,0.81
2023-01-22T19:40:53.640Z,0.80
2023-01-22T19:45:05.950Z,0.78
2023-01-22T19:49:18.811Z,0.76
2023-01-22T19:53:31.245Z,0.76
2023-01-22T19:57:43.673Z,0.75
2023-01-22T20:01:58.205Z,0.77
2023-01-22T20:10:33.249Z,0.77
2023-01-22T20:14:45.913Z,0.74
2023-01-22T20:18:58.036Z,0.73
2023-01-22T20:23:29.408Z,0.74
2023-01-22T20:27:40.996Z,0.71
2023-01-22T20:31:48.193Z,0.73
2023-01-22T20:36:00.584Z,0.73
2023-01-22T20:40:08.109Z,0.73
2023-01-22T20:44:13.869Z,0.73
2023-01-22T20:48:39.719Z,0.73
2023-01-22T20:52:52.244Z,0.72
2023-01-22T20:56:48.507Z,0.72
2023-01-22T21:01:00.867Z,0.69
2023-01-22T21:05:13.155Z,0.69
2023-01-22T21:09:26.203Z,0.69
2023-01-22T21:13:38.350Z,0.69
2023-01-22T21:17:50.964Z,0.66
2023-01-22T21:22:03.107Z,0.61
2023-01-22T21:26:15.983Z,0.60
2023-01-22T21:45:36.641Z,0.62
2023-01-22T21:49:49.792Z,0.64
2023-01-22T21:54:02.850Z,0.63
2023-01-22T21:58:15.983Z,0.61
2023-01-22T22:02:28.004Z,0.60
2023-01-22T22:06:42.400Z,0.61
2023-01-22T22:11:00.536Z,0.58
2023-01-22T22:15:13.168Z,0.55
2023-01-22T22:19:25.812Z,0.55
2023-01-22T22:24:52.651Z,0.54
2023-01-22T22:29:04.066Z,0.56
2023-01-22T22:33:16.288Z,0.57
2023-01-22T22:37:29.453Z,0.55
2023-01-22T22:41:44.802Z,0.53
2023-01-22T22:45:57.108Z,0.52
2023-01-22T22:50:08.995Z,0.54
2023-01-22T22:54:14.935Z,0.56
2023-01-22T22:58:27.355Z,0.56
2023-01-22T23:02:53.272Z,0.55
2023-01-22T23:07:19.252Z,0.49
2023-01-22T23:11:52.258Z,0.44
2023-01-22T23:16:06.831Z,0.43
2023-01-22T23:20:36.591Z,0.44
2023-01-22T23:24:55.690Z,0.45
2023-01-22T23:33:42.969Z,0.43
2023-01-22T23:37:57.303Z,0.44
2023-01-22T23:46:39.704Z,0.47
2023-01-22T23:50:53.291Z,0.49
2023-01-22T23:55:07.600Z,0.49
2023-01-22T23:59:21.079Z,0.47
